sensor_id;sensor_type;location;lat;lon;timestamp;P1;durP1;ratioP1;P2;durP2;ratioP2
16543;SDS011;8384;47.996;7.786;2023-04-24T00:02:07;1.50;;;0.80;;
16543;SDS011;8384;47.996;7.786;2023-04-24T00:04:35;1.15;;;0.85;;
16543;SDS011;8384;47.996;7.786;2023-04-24T00:07:01;1.48;;;0.75;;
16543;SDS011;8384;47.996;7.786;2023-04-24T00:09:27;1.57;;;0.77;;
16543;SDS011;8384;47.996;7.786;2023-04-24T00:11:53;1.67;;;0.70;;
16543;SDS011;8384;47.996;7.786;2023-04-24T00:14:18;1.63;;;0.80;;
16543;SDS011;8384;47.996;7.786;2023-04-24T00:16:44;1.40;;;0.70;;
16543;SDS011;8384;47.996;7.786;2023-04-24T00:19:09;1.40;;;0.70;;
16543;SDS011;8384;47.996;7.786;2023-04-24T00:21:36;0.85;;;0.60;;
16543;SDS011;8384;47.996;7.786;2023-04-24T00:24:02;0.82;;;0.57;;
16543;SDS011;8384;47.996;7.786;2023-04-24T00:26:27;1.13;;;0.60;;
16543;SDS011;8384;47.996;7.786;2023-04-24T00:28:53;1.15;;;0.60;;
16543;SDS011;8384;47.996;7.786;2023-04-24T00:31:18;1.00;;;0.60;;
16543;SDS011;8384;47.996;7.786;2023-04-24T00:33:44;0.52;;;0.50;;
16543;SDS011;8384;47.996;7.786;2023-04-24T00:36:09;0.90;;;0.60;;
16543;SDS011;8384;47.996;7.786;2023-04-24T00:38:34;0.90;;;0.57;;
16543;SDS011;8384;47.996;7.786;2023-04-24T00:40:59;0.97;;;0.60;;
16543;SDS011;8384;47.996;7.786;2023-04-24T00:43:25;2.10;;;0.63;;
16543;SDS011;8384;47.996;7.786;2023-04-24T00:45:50;1.43;;;0.60;;
16543;SDS011;8384;47.996;7.786;2023-04-24T00:48:16;1.30;;;0.70;;
16543;SDS011;8384;47.996;7.786;2023-04-24T00:50:41;1.20;;;0.70;;
16543;SDS011;8384;47.996;7.786;2023-04-24T00:53:07;1.70;;;0.60;;
16543;SDS011;8384;47.996;7.786;2023-04-24T00:55:32;1.10;;;0.50;;
16543;SDS011;8384;47.996;7.786;2023-04-24T00:57:57;1.27;;;0.50;;
16543;SDS011;8384;47.996;7.786;2023-04-24T01:00:23;1.60;;;0.70;;
16543;SDS011;8384;47.996;7.786;2023-04-24T01:02:48;1.10;;;0.60;;
16543;SDS011;8384;47.996;7.786;2023-04-24T01:05:14;0.90;;;0.50;;
16543;SDS011;8384;47.996;7.786;2023-04-24T01:07:40;0.93;;;0.50;;
16543;SDS011;8384;47.996;7.786;2023-04-24T01:10:09;1.25;;;0.60;;
16543;SDS011;8384;47.996;7.786;2023-04-24T01:12:34;1.52;;;0.60;;
16543;SDS011;8384;47.996;7.786;2023-04-24T01:15:00;1.00;;;0.50;;
16543;SDS011;8384;47.996;7.786;2023-04-24T01:17:25;1.13;;;0.70;;
16543;SDS011;8384;47.996;7.786;2023-04-24T01:19:51;1.77;;;0.60;;
16543;SDS011;8384;47.996;7.786;2023-04-24T01:22:18;0.70;;;0.55;;
16543;SDS011;8384;47.996;7.786;2023-04-24T01:24:45;0.93;;;0.50;;
16543;SDS011;8384;47.996;7.786;2023-04-24T01:27:11;1.07;;;0.50;;
16543;SDS011;8384;47.996;7.786;2023-04-24T01:29:37;0.60;;;0.50;;
16543;SDS011;8384;47.996;7.786;2023-04-24T01:32:03;1.40;;;0.70;;
16543;SDS011;8384;47.996;7.786;2023-04-24T01:34:29;1.30;;;0.70;;
16543;SDS011;8384;47.996;7.786;2023-04-24T01:36:54;1.02;;;0.50;;
16543;SDS011;8384;47.996;7.786;2023-04-24T01:39:21;1.27;;;0.70;;
16543;SDS011;8384;47.996;7.786;2023-04-24T01:41:48;0.75;;;0.60;;
16543;SDS011;8384;47.996;7.786;2023-04-24T01:44:14;1.40;;;0.60;;
16543;SDS011;8384;47.996;7.786;2023-04-24T01:46:40;1.02;;;0.60;;
16543;SDS011;8384;47.996;7.786;2023-04-24T01:49:06;2.38;;;0.70;;
16543;SDS011;8384;47.996;7.786;2023-04-24T01:51:31;1.00;;;0.70;;
16543;SDS011;8384;47.996;7.786;2023-04-24T01:53:56;1.90;;;0.70;;
16543;SDS011;8384;47.996;7.786;2023-04-24T01:56:22;1.83;;;0.60;;
16543;SDS011;8384;47.996;7.786;2023-04-24T01:58:48;1.67;;;0.80;;
16543;SDS011;8384;47.996;7.786;2023-04-24T02:01:18;1.50;;;0.60;;
16543;SDS011;8384;47.996;7.786;2023-04-24T02:03:44;0.80;;;0.70;;
16543;SDS011;8384;47.996;7.786;2023-04-24T02:06:09;1.77;;;0.67;;
16543;SDS011;8384;47.996;7.786;2023-04-24T02:08:34;2.40;;;0.80;;
16543;SDS011;8384;47.996;7.786;2023-04-24T02:11:00;2.10;;;0.80;;
16543;SDS011;8384;47.996;7.786;2023-04-24T02:13:26;1.45;;;0.68;;
16543;SDS011;8384;47.996;7.786;2023-04-24T02:15:52;1.87;;;0.70;;
16543;SDS011;8384;47.996;7.786;2023-04-24T02:18:17;1.20;;;0.63;;
16543;SDS011;8384;47.996;7.786;2023-04-24T02:20:42;1.77;;;0.70;;
16543;SDS011;8384;47.996;7.786;2023-04-24T02:23:07;1.40;;;0.70;;
16543;SDS011;8384;47.996;7.786;2023-04-24T02:25:33;1.50;;;0.82;;
16543;SDS011;8384;47.996;7.786;2023-04-24T02:27:58;2.30;;;0.80;;
16543;SDS011;8384;47.996;7.786;2023-04-24T02:30:23;1.13;;;0.80;;
16543;SDS011;8384;47.996;7.786;2023-04-24T02:32:49;3.80;;;0.83;;
16543;SDS011;8384;47.996;7.786;2023-04-24T02:35:14;1.63;;;0.70;;
16543;SDS011;8384;47.996;7.786;2023-04-24T02:37:39;1.53;;;0.80;;
16543;SDS011;8384;47.996;7.786;2023-04-24T02:40:05;1.87;;;0.63;;
16543;SDS011;8384;47.996;7.786;2023-04-24T02:42:31;1.27;;;0.75;;
16543;SDS011;8384;47.996;7.786;2023-04-24T02:44:56;2.23;;;0.87;;
16543;SDS011;8384;47.996;7.786;2023-04-24T02:47:21;2.33;;;0.80;;
16543;SDS011;8384;47.996;7.786;2023-04-24T02:49:46;2.40;;;1.00;;
16543;SDS011;8384;47.996;7.786;2023-04-24T02:52:12;1.90;;;0.80;;
16543;SDS011;8384;47.996;7.786;2023-04-24T02:54:38;1.40;;;0.70;;
16543;SDS011;8384;47.996;7.786;2023-04-24T02:57:03;1.60;;;0.70;;
16543;SDS011;8384;47.996;7.786;2023-04-24T02:59:28;1.93;;;0.63;;
16543;SDS011;8384;47.996;7.786;2023-04-24T03:01:54;1.50;;;0.70;;
16543;SDS011;8384;47.996;7.786;2023-04-24T03:04:19;0.97;;;0.70;;
16543;SDS011;8384;47.996;7.786;2023-04-24T03:06:45;1.10;;;0.60;;
16543;SDS011;8384;47.996;7.786;2023-04-24T03:09:10;1.73;;;0.90;;
16543;SDS011;8384;47.996;7.786;2023-04-24T03:11:36;1.43;;;0.70;;
16543;SDS011;8384;47.996;7.786;2023-04-24T03:14:01;2.40;;;0.73;;
16543;SDS011;8384;47.996;7.786;2023-04-24T03:16:27;3.85;;;1.00;;
16543;SDS011;8384;47.996;7.786;2023-04-24T03:18:52;2.10;;;0.80;;
16543;SDS011;8384;47.996;7.786;2023-04-24T03:21:17;3.00;;;0.80;;
16543;SDS011;8384;47.996;7.786;2023-04-24T03:23:43;2.17;;;0.82;;
16543;SDS011;8384;47.996;7.786;2023-04-24T03:26:08;2.30;;;0.90;;
16543;SDS011;8384;47.996;7.786;2023-04-24T03:28:33;2.37;;;0.80;;
16543;SDS011;8384;47.996;7.786;2023-04-24T03:30:59;2.43;;;0.87;;
16543;SDS011;8384;47.996;7.786;2023-04-24T03:33:24;2.53;;;0.85;;
16543;SDS011;8384;47.996;7.786;2023-04-24T03:35:50;2.10;;;1.00;;
16543;SDS011;8384;47.996;7.786;2023-04-24T03:38:15;2.07;;;0.90;;
16543;SDS011;8384;47.996;7.786;2023-04-24T03:40:40;1.40;;;0.70;;
16543;SDS011;8384;47.996;7.786;2023-04-24T03:43:05;1.27;;;0.80;;
16543;SDS011;8384;47.996;7.786;2023-04-24T03:45:31;1.27;;;0.70;;
16543;SDS011;8384;47.996;7.786;2023-04-24T03:47:56;2.00;;;0.90;;
16543;SDS011;8384;47.996;7.786;2023-04-24T03:50:21;1.43;;;0.80;;
16543;SDS011;8384;47.996;7.786;2023-04-24T03:52:47;2.10;;;0.70;;
16543;SDS011;8384;47.996;7.786;2023-04-24T03:55:12;1.63;;;0.80;;
16543;SDS011;8384;47.996;7.786;2023-04-24T03:57:39;1.88;;;0.85;;
16543;SDS011;8384;47.996;7.786;2023-04-24T04:00:07;2.25;;;1.00;;
16543;SDS011;8384;47.996;7.786;2023-04-24T04:02:33;1.98;;;0.90;;
16543;SDS011;8384;47.996;7.786;2023-04-24T04:04:59;2.13;;;1.10;;
16543;SDS011;8384;47.996;7.786;2023-04-24T04:07:24;2.80;;;1.20;;
16543;SDS011;8384;47.996;7.786;2023-04-24T04:09:50;2.80;;;1.00;;
16543;SDS011;8384;47.996;7.786;2023-04-24T04:12:15;2.30;;;0.80;;
16543;SDS011;8384;47.996;7.786;2023-04-24T04:14:41;2.23;;;1.13;;
16543;SDS011;8384;47.996;7.786;2023-04-24T04:17:06;1.70;;;1.10;;
16543;SDS011;8384;47.996;7.786;2023-04-24T04:19:31;2.37;;;1.07;;
16543;SDS011;8384;47.996;7.786;2023-04-24T04:21:57;3.80;;;1.50;;
16543;SDS011;8384;47.996;7.786;2023-04-24T04:24:22;1.97;;;1.20;;
16543;SDS011;8384;47.996;7.786;2023-04-24T04:26:48;1.40;;;1.00;;
16543;SDS011;8384;47.996;7.786;2023-04-24T04:29:15;2.65;;;1.23;;
16543;SDS011;8384;47.996;7.786;2023-04-24T04:31:41;2.23;;;1.20;;
16543;SDS011;8384;47.996;7.786;2023-04-24T04:34:06;2.77;;;1.30;;
16543;SDS011;8384;47.996;7.786;2023-04-24T04:36:32;1.63;;;1.03;;
16543;SDS011;8384;47.996;7.786;2023-04-24T04:39:01;2.80;;;1.50;;
16543;SDS011;8384;47.996;7.786;2023-04-24T04:41:28;2.63;;;1.45;;
16543;SDS011;8384;47.996;7.786;2023-04-24T04:43:55;2.40;;;1.40;;
16543;SDS011;8384;47.996;7.786;2023-04-24T04:46:23;2.35;;;1.30;;
16543;SDS011;8384;47.996;7.786;2023-04-24T04:48:51;1.73;;;1.30;;
16543;SDS011;8384;47.996;7.786;2023-04-24T04:51:16;2.47;;;1.30;;
16543;SDS011;8384;47.996;7.786;2023-04-24T04:53:42;2.35;;;1.33;;
16543;SDS011;8384;47.996;7.786;2023-04-24T04:56:07;1.60;;;1.27;;
16543;SDS011;8384;47.996;7.786;2023-04-24T04:58:33;2.43;;;1.47;;
16543;SDS011;8384;47.996;7.786;2023-04-24T05:00:58;2.13;;;1.30;;
16543;SDS011;8384;47.996;7.786;2023-04-24T05:03:24;2.15;;;1.38;;
16543;SDS011;8384;47.996;7.786;2023-04-24T05:05:49;2.73;;;1.43;;
16543;SDS011;8384;47.996;7.786;2023-04-24T05:08:14;1.77;;;1.20;;
16543;SDS011;8384;47.996;7.786;2023-04-24T05:10:40;1.98;;;1.48;;
16543;SDS011;8384;47.996;7.786;2023-04-24T05:13:05;2.30;;;1.33;;
16543;SDS011;8384;47.996;7.786;2023-04-24T05:15:30;2.07;;;1.40;;
16543;SDS011;8384;47.996;7.786;2023-04-24T05:17:55;2.80;;;1.40;;
16543;SDS011;8384;47.996;7.786;2023-04-24T05:20:21;2.17;;;1.60;;
16543;SDS011;8384;47.996;7.786;2023-04-24T05:22:46;2.53;;;1.70;;
16543;SDS011;8384;47.996;7.786;2023-04-24T05:25:11;2.30;;;1.50;;
16543;SDS011;8384;47.996;7.786;2023-04-24T05:27:37;2.37;;;1.70;;
16543;SDS011;8384;47.996;7.786;2023-04-24T05:30:03;2.17;;;1.60;;
16543;SDS011;8384;47.996;7.786;2023-04-24T05:32:29;2.63;;;1.90;;
16543;SDS011;8384;47.996;7.786;2023-04-24T05:34:54;3.03;;;2.08;;
16543;SDS011;8384;47.996;7.786;2023-04-24T05:37:20;3.05;;;2.10;;
16543;SDS011;8384;47.996;7.786;2023-04-24T05:39:45;3.03;;;1.97;;
16543;SDS011;8384;47.996;7.786;2023-04-24T05:42:10;2.92;;;2.22;;
16543;SDS011;8384;47.996;7.786;2023-04-24T05:44:36;3.03;;;2.00;;
16543;SDS011;8384;47.996;7.786;2023-04-24T05:47:01;2.93;;;2.10;;
16543;SDS011;8384;47.996;7.786;2023-04-24T05:49:27;4.45;;;2.55;;
16543;SDS011;8384;47.996;7.786;2023-04-24T05:51:52;2.97;;;2.15;;
16543;SDS011;8384;47.996;7.786;2023-04-24T05:54:17;3.23;;;2.30;;
16543;SDS011;8384;47.996;7.786;2023-04-24T05:56:42;2.33;;;2.10;;
16543;SDS011;8384;47.996;7.786;2023-04-24T05:59:08;3.40;;;2.23;;
16543;SDS011;8384;47.996;7.786;2023-04-24T06:01:33;3.23;;;2.30;;
16543;SDS011;8384;47.996;7.786;2023-04-24T06:03:59;2.40;;;2.10;;
16543;SDS011;8384;47.996;7.786;2023-04-24T06:06:24;3.42;;;2.58;;
16543;SDS011;8384;47.996;7.786;2023-04-24T06:08:50;3.00;;;2.58;;
16543;SDS011;8384;47.996;7.786;2023-04-24T06:11:16;3.17;;;2.40;;
16543;SDS011;8384;47.996;7.786;2023-04-24T06:13:41;2.90;;;2.55;;
16543;SDS011;8384;47.996;7.786;2023-04-24T06:16:07;3.15;;;2.67;;
16543;SDS011;8384;47.996;7.786;2023-04-24T06:18:32;3.13;;;2.60;;
16543;SDS011;8384;47.996;7.786;2023-04-24T06:20:57;4.45;;;2.90;;
16543;SDS011;8384;47.996;7.786;2023-04-24T06:23:23;3.60;;;2.70;;
16543;SDS011;8384;47.996;7.786;2023-04-24T06:25:48;2.87;;;2.50;;
16543;SDS011;8384;47.996;7.786;2023-04-24T06:28:13;4.33;;;2.90;;
16543;SDS011;8384;47.996;7.786;2023-04-24T06:30:39;3.50;;;2.87;;
16543;SDS011;8384;47.996;7.786;2023-04-24T06:33:04;2.93;;;2.67;;
16543;SDS011;8384;47.996;7.786;2023-04-24T06:35:29;3.00;;;2.70;;
16543;SDS011;8384;47.996;7.786;2023-04-24T06:37:55;4.00;;;2.90;;
16543;SDS011;8384;47.996;7.786;2023-04-24T06:40:21;3.03;;;2.70;;
16543;SDS011;8384;47.996;7.786;2023-04-24T06:42:46;3.93;;;2.70;;
16543;SDS011;8384;47.996;7.786;2023-04-24T06:45:11;3.10;;;2.80;;
16543;SDS011;8384;47.996;7.786;2023-04-24T06:47:37;3.40;;;2.50;;
16543;SDS011;8384;47.996;7.786;2023-04-24T06:50:03;3.33;;;2.47;;
16543;SDS011;8384;47.996;7.786;2023-04-24T06:52:28;3.22;;;2.63;;
16543;SDS011;8384;47.996;7.786;2023-04-24T06:55:03;4.15;;;2.65;;
16543;SDS011;8384;47.996;7.786;2023-04-24T06:57:29;3.33;;;2.70;;
16543;SDS011;8384;47.996;7.786;2023-04-24T06:59:55;2.97;;;2.50;;
16543;SDS011;8384;47.996;7.786;2023-04-24T07:02:20;2.80;;;2.50;;
16543;SDS011;8384;47.996;7.786;2023-04-24T07:04:45;3.10;;;2.50;;
16543;SDS011;8384;47.996;7.786;2023-04-24T07:07:11;3.42;;;2.70;;
16543;SDS011;8384;47.996;7.786;2023-04-24T07:09:39;3.42;;;2.80;;
16543;SDS011;8384;47.996;7.786;2023-04-24T07:12:07;2.53;;;2.33;;
16543;SDS011;8384;47.996;7.786;2023-04-24T07:14:32;2.60;;;2.40;;
16543;SDS011;8384;47.996;7.786;2023-04-24T07:16:57;3.03;;;2.40;;
16543;SDS011;8384;47.996;7.786;2023-04-24T07:19:23;2.88;;;2.40;;
16543;SDS011;8384;47.996;7.786;2023-04-24T07:21:48;2.53;;;2.33;;
16543;SDS011;8384;47.996;7.786;2023-04-24T07:24:14;2.50;;;2.00;;
16543;SDS011;8384;47.996;7.786;2023-04-24T07:26:40;2.53;;;2.30;;
16543;SDS011;8384;47.996;7.786;2023-04-24T07:29:05;2.20;;;2.00;;
16543;SDS011;8384;47.996;7.786;2023-04-24T07:31:31;2.60;;;2.13;;
16543;SDS011;8384;47.996;7.786;2023-04-24T07:33:56;2.55;;;2.00;;
16543;SDS011;8384;47.996;7.786;2023-04-24T07:36:23;2.33;;;2.00;;
16543;SDS011;8384;47.996;7.786;2023-04-24T07:38:49;3.20;;;2.05;;
16543;SDS011;8384;47.996;7.786;2023-04-24T07:41:14;2.20;;;1.70;;
16543;SDS011;8384;47.996;7.786;2023-04-24T07:43:40;1.97;;;1.73;;
16543;SDS011;8384;47.996;7.786;2023-04-24T07:46:06;1.90;;;1.70;;
16543;SDS011;8384;47.996;7.786;2023-04-24T07:48:32;3.10;;;1.90;;
16543;SDS011;8384;47.996;7.786;2023-04-24T07:50:57;2.30;;;2.00;;
16543;SDS011;8384;47.996;7.786;2023-04-24T07:53:23;2.37;;;1.90;;
16543;SDS011;8384;47.996;7.786;2023-04-24T07:55:48;2.60;;;1.97;;
16543;SDS011;8384;47.996;7.786;2023-04-24T07:58:13;2.60;;;2.10;;
16543;SDS011;8384;47.996;7.786;2023-04-24T08:00:39;3.53;;;2.00;;
16543;SDS011;8384;47.996;7.786;2023-04-24T08:03:04;2.83;;;1.80;;
16543;SDS011;8384;47.996;7.786;2023-04-24T08:05:29;2.30;;;1.90;;
16543;SDS011;8384;47.996;7.786;2023-04-24T08:07:55;2.57;;;2.10;;
16543;SDS011;8384;47.996;7.786;2023-04-24T08:10:23;2.92;;;2.20;;
16543;SDS011;8384;47.996;7.786;2023-04-24T08:12:49;2.22;;;2.00;;
16543;SDS011;8384;47.996;7.786;2023-04-24T08:15:14;3.10;;;2.30;;
16543;SDS011;8384;47.996;7.786;2023-04-24T08:17:40;2.90;;;2.20;;
16543;SDS011;8384;47.996;7.786;2023-04-24T08:20:05;3.17;;;2.23;;
16543;SDS011;8384;47.996;7.786;2023-04-24T08:22:35;2.83;;;2.30;;
16543;SDS011;8384;47.996;7.786;2023-04-24T08:25:00;2.50;;;1.83;;
16543;SDS011;8384;47.996;7.786;2023-04-24T08:27:26;3.53;;;2.00;;
16543;SDS011;8384;47.996;7.786;2023-04-24T08:29:52;3.15;;;2.10;;
16543;SDS011;8384;47.996;7.786;2023-04-24T08:32:19;2.90;;;1.77;;
16543;SDS011;8384;47.996;7.786;2023-04-24T08:34:44;4.00;;;1.87;;
16543;SDS011;8384;47.996;7.786;2023-04-24T08:37:10;3.08;;;1.60;;
16543;SDS011;8384;47.996;7.786;2023-04-24T08:39:35;2.17;;;1.50;;
16543;SDS011;8384;47.996;7.786;2023-04-24T08:42:01;3.08;;;1.88;;
16543;SDS011;8384;47.996;7.786;2023-04-24T08:44:31;2.45;;;1.42;;
16543;SDS011;8384;47.996;7.786;2023-04-24T08:46:57;2.50;;;1.40;;
16543;SDS011;8384;47.996;7.786;2023-04-24T08:49:22;1.90;;;1.40;;
16543;SDS011;8384;47.996;7.786;2023-04-24T08:51:49;1.50;;;1.30;;
16543;SDS011;8384;47.996;7.786;2023-04-24T08:54:15;1.98;;;1.40;;
16543;SDS011;8384;47.996;7.786;2023-04-24T08:56:42;2.38;;;1.40;;
16543;SDS011;8384;47.996;7.786;2023-04-24T08:59:09;2.53;;;1.48;;
16543;SDS011;8384;47.996;7.786;2023-04-24T09:01:35;2.53;;;1.30;;
16543;SDS011;8384;47.996;7.786;2023-04-24T09:04:03;2.38;;;1.50;;
16543;SDS011;8384;47.996;7.786;2023-04-24T09:06:28;2.53;;;1.38;;
16543;SDS011;8384;47.996;7.786;2023-04-24T09:08:55;2.85;;;1.42;;
16543;SDS011;8384;47.996;7.786;2023-04-24T09:11:24;2.45;;;1.67;;
16543;SDS011;8384;47.996;7.786;2023-04-24T09:13:50;3.20;;;1.50;;
16543;SDS011;8384;47.996;7.786;2023-04-24T09:16:16;2.92;;;1.58;;
16543;SDS011;8384;47.996;7.786;2023-04-24T09:18:41;3.08;;;1.42;;
16543;SDS011;8384;47.996;7.786;2023-04-24T09:21:07;2.43;;;1.20;;
16543;SDS011;8384;47.996;7.786;2023-04-24T09:23:34;3.85;;;1.50;;
16543;SDS011;8384;47.996;7.786;2023-04-24T09:26:00;2.07;;;1.20;;
16543;SDS011;8384;47.996;7.786;2023-04-24T09:28:37;2.28;;;1.20;;
16543;SDS011;8384;47.996;7.786;2023-04-24T09:33:38;2.08;;;1.30;;
16543;SDS011;8384;47.996;7.786;2023-04-24T09:36:04;2.60;;;1.50;;
16543;SDS011;8384;47.996;7.786;2023-04-24T09:38:35;2.92;;;1.50;;
16543;SDS011;8384;47.996;7.786;2023-04-24T09:41:02;2.90;;;1.40;;
16543;SDS011;8384;47.996;7.786;2023-04-24T09:43:29;2.92;;;1.50;;
16543;SDS011;8384;47.996;7.786;2023-04-24T09:45:55;2.47;;;1.40;;
16543;SDS011;8384;47.996;7.786;2023-04-24T09:48:32;3.83;;;1.52;;
16543;SDS011;8384;47.996;7.786;2023-04-24T09:50:59;2.35;;;1.17;;
16543;SDS011;8384;47.996;7.786;2023-04-24T09:53:26;2.53;;;1.30;;
16543;SDS011;8384;47.996;7.786;2023-04-24T09:55:52;2.83;;;1.30;;
16543;SDS011;8384;47.996;7.786;2023-04-24T09:58:18;1.60;;;1.13;;
16543;SDS011;8384;47.996;7.786;2023-04-24T10:00:49;1.90;;;1.20;;
16543;SDS011;8384;47.996;7.786;2023-04-24T10:03:18;1.80;;;0.93;;
16543;SDS011;8384;47.996;7.786;2023-04-24T10:05:44;1.17;;;0.77;;
16543;SDS011;8384;47.996;7.786;2023-04-24T10:08:11;1.00;;;0.80;;
16543;SDS011;8384;47.996;7.786;2023-04-24T10:10:39;1.17;;;0.65;;
16543;SDS011;8384;47.996;7.786;2023-04-24T10:13:08;1.30;;;0.75;;
16543;SDS011;8384;47.996;7.786;2023-04-24T10:15:35;1.42;;;0.70;;
16543;SDS011;8384;47.996;7.786;2023-04-24T10:18:00;1.92;;;0.93;;
16543;SDS011;8384;47.996;7.786;2023-04-24T10:20:29;1.40;;;0.70;;
16543;SDS011;8384;47.996;7.786;2023-04-24T10:22:58;1.48;;;0.85;;
16543;SDS011;8384;47.996;7.786;2023-04-24T10:25:28;1.20;;;0.80;;
16543;SDS011;8384;47.996;7.786;2023-04-24T10:27:55;0.70;;;0.60;;
16543;SDS011;8384;47.996;7.786;2023-04-24T10:30:25;1.00;;;0.63;;
16543;SDS011;8384;47.996;7.786;2023-04-24T10:32:52;1.80;;;0.70;;
16543;SDS011;8384;47.996;7.786;2023-04-24T10:35:17;1.42;;;0.85;;
16543;SDS011;8384;47.996;7.786;2023-04-24T10:37:48;1.30;;;0.90;;
16543;SDS011;8384;47.996;7.786;2023-04-24T10:40:19;1.67;;;1.00;;
16543;SDS011;8384;47.996;7.786;2023-04-24T10:42:51;1.92;;;0.95;;
16543;SDS011;8384;47.996;7.786;2023-04-24T10:45:20;1.08;;;0.98;;
16543;SDS011;8384;47.996;7.786;2023-04-24T10:48:03;1.02;;;0.90;;
16543;SDS011;8384;47.996;7.786;2023-04-24T10:50:47;1.42;;;1.00;;
16543;SDS011;8384;47.996;7.786;2023-04-24T10:53:20;1.48;;;0.93;;
16543;SDS011;8384;47.996;7.786;2023-04-24T10:58:40;1.83;;;1.05;;
16543;SDS011;8384;47.996;7.786;2023-04-24T11:01:11;2.17;;;1.00;;
16543;SDS011;8384;47.996;7.786;2023-04-24T11:03:50;1.45;;;1.20;;
16543;SDS011;8384;47.996;7.786;2023-04-24T11:06:28;1.80;;;1.13;;
16543;SDS011;8384;47.996;7.786;2023-04-24T11:08:58;2.00;;;1.20;;
16543;SDS011;8384;47.996;7.786;2023-04-24T11:11:28;1.92;;;1.20;;
16543;SDS011;8384;47.996;7.786;2023-04-24T11:18:51;2.05;;;1.20;;
16543;SDS011;8384;47.996;7.786;2023-04-24T11:21:19;1.50;;;1.10;;
16543;SDS011;8384;47.996;7.786;2023-04-24T11:23:45;2.13;;;1.13;;
16543;SDS011;8384;47.996;7.786;2023-04-24T11:26:23;1.55;;;1.20;;
16543;SDS011;8384;47.996;7.786;2023-04-24T11:29:06;3.10;;;1.17;;
16543;SDS011;8384;47.996;7.786;2023-04-24T11:31:36;1.50;;;1.20;;
16543;SDS011;8384;47.996;7.786;2023-04-24T11:34:06;2.58;;;1.20;;
16543;SDS011;8384;47.996;7.786;2023-04-24T11:36:33;2.20;;;1.30;;
16543;SDS011;8384;47.996;7.786;2023-04-24T11:38:59;3.07;;;1.30;;
16543;SDS011;8384;47.996;7.786;2023-04-24T11:41:25;1.88;;;1.20;;
16543;SDS011;8384;47.996;7.786;2023-04-24T11:43:52;1.92;;;1.30;;
16543;SDS011;8384;47.996;7.786;2023-04-24T11:46:20;1.30;;;1.20;;
16543;SDS011;8384;47.996;7.786;2023-04-24T11:48:46;2.05;;;1.13;;
16543;SDS011;8384;47.996;7.786;2023-04-24T11:51:12;2.37;;;1.20;;
16543;SDS011;8384;47.996;7.786;2023-04-24T11:53:38;1.65;;;1.08;;
16543;SDS011;8384;47.996;7.786;2023-04-24T11:56:03;2.03;;;1.10;;
16543;SDS011;8384;47.996;7.786;2023-04-24T11:58:34;2.13;;;1.30;;
16543;SDS011;8384;47.996;7.786;2023-04-24T12:01:00;1.73;;;1.33;;
16543;SDS011;8384;47.996;7.786;2023-04-24T12:03:26;1.60;;;1.10;;
16543;SDS011;8384;47.996;7.786;2023-04-24T12:05:51;2.55;;;1.40;;
16543;SDS011;8384;47.996;7.786;2023-04-24T12:08:27;2.10;;;1.10;;
16543;SDS011;8384;47.996;7.786;2023-04-24T12:10:53;1.95;;;1.15;;
16543;SDS011;8384;47.996;7.786;2023-04-24T12:13:18;2.57;;;1.30;;
16543;SDS011;8384;47.996;7.786;2023-04-24T12:15:44;1.87;;;1.13;;
16543;SDS011;8384;47.996;7.786;2023-04-24T12:18:11;1.93;;;1.10;;
16543;SDS011;8384;47.996;7.786;2023-04-24T12:20:37;1.95;;;1.27;;
16543;SDS011;8384;47.996;7.786;2023-04-24T12:23:02;2.03;;;1.20;;
16543;SDS011;8384;47.996;7.786;2023-04-24T12:25:29;2.00;;;1.37;;
16543;SDS011;8384;47.996;7.786;2023-04-24T12:30:31;2.17;;;1.20;;
16543;SDS011;8384;47.996;7.786;2023-04-24T12:32:59;1.80;;;1.30;;
16543;SDS011;8384;47.996;7.786;2023-04-24T12:35:26;1.85;;;1.00;;
16543;SDS011;8384;47.996;7.786;2023-04-24T12:37:53;2.03;;;0.98;;
16543;SDS011;8384;47.996;7.786;2023-04-24T12:40:19;1.90;;;1.20;;
16543;SDS011;8384;47.996;7.786;2023-04-24T12:42:49;1.67;;;1.00;;
16543;SDS011;8384;47.996;7.786;2023-04-24T12:45:16;1.23;;;1.10;;
16543;SDS011;8384;47.996;7.786;2023-04-24T12:47:42;1.85;;;1.00;;
16543;SDS011;8384;47.996;7.786;2023-04-24T12:50:09;2.33;;;1.17;;
16543;SDS011;8384;47.996;7.786;2023-04-24T12:52:36;2.10;;;1.23;;
16543;SDS011;8384;47.996;7.786;2023-04-24T12:55:02;1.93;;;1.20;;
16543;SDS011;8384;47.996;7.786;2023-04-24T12:57:30;1.92;;;1.10;;
16543;SDS011;8384;47.996;7.786;2023-04-24T12:59:56;1.70;;;1.10;;
16543;SDS011;8384;47.996;7.786;2023-04-24T13:02:23;1.58;;;1.15;;
16543;SDS011;8384;47.996;7.786;2023-04-24T13:04:49;1.38;;;1.10;;
16543;SDS011;8384;47.996;7.786;2023-04-24T13:07:15;1.35;;;1.10;;
16543;SDS011;8384;47.996;7.786;2023-04-24T13:09:41;2.65;;;1.17;;
16543;SDS011;8384;47.996;7.786;2023-04-24T13:12:07;2.10;;;1.10;;
16543;SDS011;8384;47.996;7.786;2023-04-24T13:14:33;2.17;;;1.40;;
16543;SDS011;8384;47.996;7.786;2023-04-24T13:16:59;1.88;;;1.27;;
16543;SDS011;8384;47.996;7.786;2023-04-24T13:19:25;2.43;;;1.10;;
16543;SDS011;8384;47.996;7.786;2023-04-24T13:21:51;1.90;;;1.10;;
16543;SDS011;8384;47.996;7.786;2023-04-24T13:24:17;1.80;;;1.20;;
16543;SDS011;8384;47.996;7.786;2023-04-24T13:26:43;2.63;;;1.20;;
16543;SDS011;8384;47.996;7.786;2023-04-24T13:29:09;1.95;;;1.20;;
16543;SDS011;8384;47.996;7.786;2023-04-24T13:31:34;2.00;;;1.30;;
16543;SDS011;8384;47.996;7.786;2023-04-24T13:34:00;1.52;;;1.33;;
16543;SDS011;8384;47.996;7.786;2023-04-24T13:36:26;1.67;;;1.23;;
16543;SDS011;8384;47.996;7.786;2023-04-24T13:38:51;1.97;;;1.20;;
16543;SDS011;8384;47.996;7.786;2023-04-24T13:41:16;1.70;;;1.33;;
16543;SDS011;8384;47.996;7.786;2023-04-24T13:43:42;2.03;;;1.50;;
16543;SDS011;8384;47.996;7.786;2023-04-24T13:46:08;1.90;;;1.40;;
16543;SDS011;8384;47.996;7.786;2023-04-24T13:48:33;1.65;;;1.35;;
16543;SDS011;8384;47.996;7.786;2023-04-24T13:50:59;3.60;;;1.42;;
16543;SDS011;8384;47.996;7.786;2023-04-24T13:53:24;2.90;;;1.57;;
16543;SDS011;8384;47.996;7.786;2023-04-24T13:55:50;2.20;;;1.60;;
16543;SDS011;8384;47.996;7.786;2023-04-24T13:58:15;2.10;;;1.60;;
16543;SDS011;8384;47.996;7.786;2023-04-24T14:00:40;2.85;;;1.73;;
16543;SDS011;8384;47.996;7.786;2023-04-24T14:03:06;3.20;;;1.70;;
16543;SDS011;8384;47.996;7.786;2023-04-24T14:05:31;2.70;;;1.60;;
16543;SDS011;8384;47.996;7.786;2023-04-24T14:07:56;2.07;;;1.67;;
16543;SDS011;8384;47.996;7.786;2023-04-24T14:10:21;2.17;;;1.50;;
16543;SDS011;8384;47.996;7.786;2023-04-24T14:12:47;2.67;;;1.30;;
16543;SDS011;8384;47.996;7.786;2023-04-24T14:15:13;1.97;;;1.30;;
16543;SDS011;8384;47.996;7.786;2023-04-24T14:17:38;3.60;;;1.30;;
16543;SDS011;8384;47.996;7.786;2023-04-24T14:20:04;2.00;;;1.40;;
16543;SDS011;8384;47.996;7.786;2023-04-24T14:22:30;2.42;;;1.40;;
16543;SDS011;8384;47.996;7.786;2023-04-24T14:24:55;2.33;;;1.57;;
16543;SDS011;8384;47.996;7.786;2023-04-24T14:27:20;2.30;;;1.20;;
16543;SDS011;8384;47.996;7.786;2023-04-24T14:29:46;1.70;;;1.30;;
16543;SDS011;8384;47.996;7.786;2023-04-24T14:32:11;2.27;;;1.20;;
16543;SDS011;8384;47.996;7.786;2023-04-24T14:34:39;1.48;;;1.10;;
16543;SDS011;8384;47.996;7.786;2023-04-24T14:37:05;1.90;;;1.20;;
16543;SDS011;8384;47.996;7.786;2023-04-24T14:39:30;1.85;;;1.13;;
16543;SDS011;8384;47.996;7.786;2023-04-24T14:41:55;2.33;;;1.40;;
16543;SDS011;8384;47.996;7.786;2023-04-24T14:44:21;1.25;;;1.00;;
16543;SDS011;8384;47.996;7.786;2023-04-24T14:46:48;2.05;;;1.30;;
16543;SDS011;8384;47.996;7.786;2023-04-24T14:49:14;2.13;;;1.20;;
16543;SDS011;8384;47.996;7.786;2023-04-24T14:51:39;1.33;;;1.20;;
16543;SDS011;8384;47.996;7.786;2023-04-24T14:54:05;2.60;;;1.40;;
16543;SDS011;8384;47.996;7.786;2023-04-24T14:56:31;2.80;;;1.53;;
16543;SDS011;8384;47.996;7.786;2023-04-24T14:58:56;2.23;;;1.53;;
16543;SDS011;8384;47.996;7.786;2023-04-24T15:01:21;2.13;;;1.52;;
16543;SDS011;8384;47.996;7.786;2023-04-24T15:03:47;2.42;;;1.75;;
16543;SDS011;8384;47.996;7.786;2023-04-24T15:06:12;2.28;;;1.70;;
16543;SDS011;8384;47.996;7.786;2023-04-24T15:08:37;1.80;;;1.53;;